createdAt,value
2023-08-14T00:02:53.636Z,26.3
2023-08-14T00:07:54.467Z,26.3
2023-08-14T00:12:55.214Z,26.2
2023-08-14T00:17:58.923Z,26.2
2023-08-14T00:23:01.908Z,26.1
2023-08-14T00:28:04.896Z,26.1
2023-08-14T00:33:05.248Z,26
2023-08-14T00:38:09.009Z,26
2023-08-14T00:43:12.187Z,25.9
2023-08-14T00:48:15.276Z,26
2023-08-14T00:53:15.566Z,25.9
2023-08-14T00:58:19.059Z,25.9
2023-08-14T01:03:22.110Z,25.8
2023-08-14T01:08:22.569Z,25.8
2023-08-14T01:13:23.164Z,25.7
2023-08-14T01:18:24.490Z,25.7
2023-08-14T01:23:28.983Z,25.7
2023-08-14T01:28:28.993Z,25.7
2023-08-14T01:33:29.554Z,25.7
2023-08-14T01:38:30.400Z,25.6
2023-08-14T01:43:31.215Z,25.7
2023-08-14T01:48:34.587Z,25.5
2023-08-14T01:53:34.985Z,25.6
2023-08-14T01:58:35.762Z,25.6
2023-08-14T02:03:38.396Z,25.5
2023-08-14T02:08:38.695Z,25.5
2023-08-14T02:13:39.526Z,25.5
2023-08-14T02:18:44.542Z,25.5
2023-08-14T02:23:47.277Z,25.4
2023-08-14T02:28:50.412Z,25.4
2023-08-14T02:33:50.735Z,25.3
2023-08-14T02:38:51.713Z,25.3
2023-08-14T02:43:52.776Z,25.3
2023-08-14T02:48:56.581Z,25.3
2023-08-14T02:53:59.349Z,25.2
2023-08-14T02:59:02.432Z,25.1
2023-08-14T03:04:05.445Z,25.1
2023-08-14T03:09:08.740Z,25.1
2023-08-14T03:14:11.681Z,24.9
2023-08-14T03:19:14.714Z,25
2023-08-14T03:24:17.578Z,24.9
2023-08-14T03:29:20.570Z,25
2023-08-14T03:34:22.742Z,24.9
2023-08-14T03:39:23.312Z,25
2023-08-14T03:44:24.116Z,25
2023-08-14T03:49:24.666Z,24.8
2023-08-14T03:54:28.105Z,24.8
2023-08-14T03:59:28.427Z,24.8
2023-08-14T04:04:29.281Z,24.7
2023-08-14T04:09:30.245Z,24.8
2023-08-14T04:14:31.230Z,25.1
2023-08-14T04:19:34.904Z,25.1
2023-08-14T04:24:35.389Z,25.3
2023-08-14T04:29:39.930Z,25.3
2023-08-14T04:34:40.334Z,25.5
2023-08-14T04:39:43.888Z,25.6
2023-08-14T04:44:44.365Z,25.8
2023-08-14T04:49:45.242Z,25.9
2023-08-14T04:54:46.366Z,25.9
2023-08-14T04:59:47.333Z,26
2023-08-14T05:04:48.121Z,26
2023-08-14T05:09:51.770Z,26
2023-08-14T05:14:54.562Z,26.1
2023-08-14T05:19:54.157Z,26.1
2023-08-14T05:24:54.999Z,26.2
2023-08-14T05:29:55.678Z,26.2
2023-08-14T05:34:56.419Z,26.3
2023-08-14T05:40:00.177Z,26.5
2023-08-14T05:45:00.438Z,26.5
2023-08-14T05:50:03.867Z,26.5
2023-08-14T05:55:06.784Z,26.6
2023-08-14T06:00:07.270Z,26.8
2023-08-14T06:05:10.689Z,26.8
2023-08-14T06:10:11.220Z,26.9
2023-08-14T06:15:11.625Z,26.9
2023-08-14T06:20:12.446Z,27
2023-08-14T06:25:13.243Z,27
2023-08-14T06:30:16.788Z,27.2
2023-08-14T06:35:17.067Z,27.2
2023-08-14T06:40:18.058Z,27.2
2023-08-14T06:45:21.578Z,27.3
2023-08-14T06:50:24.665Z,27.4
2023-08-14T06:55:25.055Z,27.4
2023-08-14T07:00:28.616Z,27.5
2023-08-14T07:05:27.683Z,27.5
2023-08-14T07:10:28.490Z,27.5
2023-08-14T07:15:29.121Z,27.5
2023-08-14T07:20:29.908Z,27.6
2023-08-14T07:25:30.599Z,27.6
2023-08-14T07:30:31.336Z,27.6
2023-08-14T07:35:32.186Z,27.7
2023-08-14T07:40:32.967Z,27.7
2023-08-14T07:45:33.592Z,27.8
2023-08-14T07:50:34.420Z,27.8
2023-08-14T07:55:35.199Z,27.8
2023-08-14T08:00:35.971Z,27.8
2023-08-14T08:05:36.770Z,27.9
2023-08-14T08:10:40.143Z,27.9
2023-08-14T08:15:40.669Z,27.9
2023-08-14T08:20:41.381Z,27.9
2023-08-14T08:25:41.929Z,27.9
2023-08-14T08:30:42.410Z,27.9
2023-08-14T08:35:43.137Z,27.9
2023-08-14T08:40:43.717Z,27.9
2023-08-14T08:45:47.257Z,27.9
2023-08-14T08:50:47.300Z,27.9
2023-08-14T08:55:48.144Z,28
2023-08-14T09:00:48.717Z,28
2023-08-14T09:05:49.304Z,27.9
2023-08-14T09:10:50.236Z,27.9
2023-08-14T09:15:50.774Z,27.9
2023-08-14T09:20:51.624Z,28
2023-08-14T09:25:52.508Z,28
2023-08-14T09:30:56.095Z,28
2023-08-14T09:35:58.969Z,27.9
2023-08-14T09:40:59.315Z,28
2023-08-14T09:46:00.114Z,28
2023-08-14T09:51:00.879Z,28
2023-08-14T09:56:06.326Z,28
2023-08-14T10:01:03.749Z,28
2023-08-14T10:06:04.473Z,28
2023-08-14T10:11:18.735Z,28
2023-08-14T10:16:10.963Z,28.1
2023-08-14T10:21:13.684Z,28.1
2023-08-14T10:26:16.493Z,28
2023-08-14T10:31:16.298Z,28
2023-08-14T10:36:19.579Z,28.1
2023-08-14T10:41:19.919Z,28.1
2023-08-14T10:46:20.691Z,28.1
2023-08-14T10:51:21.081Z,28
2023-08-14T10:56:21.687Z,28.1
2023-08-14T11:01:25.090Z,28.1
2023-08-14T11:06:27.991Z,28.1
2023-08-14T11:11:30.900Z,28.1
2023-08-14T11:16:31.095Z,28.1
2023-08-14T11:21:32.692Z,28.1
2023-08-14T11:26:32.441Z,28.1
2023-08-14T11:31:34.479Z,28.1
2023-08-14T11:36:35.278Z,28.2
2023-08-14T11:41:34.392Z,28.2
2023-08-14T11:46:35.007Z,28.2
2023-08-14T11:51:35.889Z,28.2
2023-08-14T11:56:39.232Z,28.2
2023-08-14T12:01:39.798Z,28.2
2023-08-14T12:06:40.353Z,28.2
2023-08-14T12:11:40.960Z,28.2
2023-08-14T12:16:44.467Z,28.3
2023-08-14T12:21:47.560Z,28.3
2023-08-14T12:26:47.811Z,28.3
2023-08-14T12:31:51.388Z,28.3
2023-08-14T12:36:51.553Z,28.2
2023-08-14T12:41:55.081Z,28.3
2023-08-14T12:46:56.178Z,28.2
2023-08-14T12:51:58.579Z,28.3
2023-08-14T12:57:01.911Z,28.3
2023-08-14T13:02:00.564Z,28.3
2023-08-14T13:07:01.525Z,28.3
2023-08-14T13:12:02.295Z,28.3
2023-08-14T13:17:03.639Z,28.3
2023-08-14T13:22:04.126Z,28.4
2023-08-14T13:27:09.310Z,28.4
2023-08-14T13:32:05.689Z,28.4
2023-08-14T13:37:06.596Z,28.4
2023-08-14T13:42:07.139Z,28.4
2023-08-14T13:47:07.849Z,28.4
2023-08-14T13:52:11.271Z,28.4
2023-08-14T13:57:14.096Z,28.4
2023-08-14T14:02:17.030Z,28.4
2023-08-14T14:07:20.366Z,28.4
2023-08-14T14:12:18.625Z,28.5
2023-08-14T14:17:19.334Z,28.5
2023-08-14T14:22:22.690Z,28.5
2023-08-14T14:27:25.558Z,28.5
2023-08-14T14:32:28.527Z,28.5
2023-08-14T14:37:31.552Z,28.4
2023-08-14T14:42:34.585Z,28.5
2023-08-14T14:47:34.648Z,28.5
2023-08-14T14:52:35.444Z,28.4
2023-08-14T14:57:35.967Z,28.5
2023-08-14T15:02:36.621Z,28.5
2023-08-14T15:07:36.992Z,28.5
2023-08-14T15:12:37.499Z,28.5
2023-08-14T15:17:44.317Z,28.5
2023-08-14T15:22:40.998Z,28.5
2023-08-14T15:27:41.444Z,28.5
2023-08-14T15:32:41.946Z,28.6
2023-08-14T15:37:42.609Z,28.6
2023-08-14T15:42:43.184Z,28.6
2023-08-14T15:47:43.820Z,28.6
2023-08-14T15:52:44.666Z,28.6
2023-08-14T15:57:47.921Z,28.7
2023-08-14T16:02:48.158Z,28.7
2023-08-14T16:07:48.762Z,28.7
2023-08-14T16:12:52.148Z,28.7
2023-08-14T16:17:55.186Z,28.7
2023-08-14T16:22:58.146Z,28.7
2023-08-14T16:27:58.434Z,28.8
2023-08-14T16:32:59.060Z,28.7
2023-08-14T16:38:00.557Z,28.8
2023-08-14T16:43:01.176Z,28.7
2023-08-14T16:48:01.773Z,28.7
2023-08-14T16:53:05.353Z,28.8
2023-08-14T16:58:08.344Z,28.7
2023-08-14T17:03:11.557Z,28.7
2023-08-14T17:08:14.577Z,28.7
2023-08-14T17:13:14.512Z,28.7
2023-08-14T17:18:15.416Z,28.7
2023-08-14T17:23:18.814Z,28.7
2023-08-14T17:28:19.182Z,28.7
2023-08-14T17:33:19.806Z,28.6
2023-08-14T17:38:20.334Z,28.6
2023-08-14T17:43:23.698Z,28.7
2023-08-14T17:48:23.772Z,28.6
2023-08-14T17:53:27.109Z,28.6
2023-08-14T17:58:30.110Z,28.6
2023-08-14T18:03:33.272Z,28.6
2023-08-14T18:08:35.853Z,28.6
2023-08-14T18:13:36.058Z,28.6
2023-08-14T18:18:36.780Z,28.5
2023-08-14T18:23:37.540Z,28.6
2023-08-14T18:28:38.249Z,28.5
2023-08-14T18:33:39.025Z,28.5
2023-08-14T18:38:39.588Z,28.5
2023-08-14T18:43:42.867Z,28.5
2023-08-14T18:48:58.316Z,28.4
2023-08-14T18:53:56.920Z,28.4
2023-08-14T18:58:57.410Z,28.4
2023-08-14T19:04:00.762Z,28.4
2023-08-14T19:09:01.002Z,28.4
2023-08-14T19:14:01.760Z,28.4
2023-08-14T19:19:02.491Z,28.3
2023-08-14T19:24:06.222Z,28.4
2023-08-14T19:29:07.205Z,28.4
2023-08-14T19:34:07.492Z,28.3
2023-08-14T19:39:08.170Z,28.2
2023-08-14T19:44:11.369Z,28.3
2023-08-14T19:49:11.461Z,28.3
2023-08-14T19:54:12.279Z,28.2
2023-08-14T19:59:15.720Z,28.3
2023-08-14T20:04:18.600Z,28.3
2023-08-14T20:09:18.902Z,28.2
2023-08-14T20:14:19.468Z,28.2
2023-08-14T20:19:22.856Z,28.2
2023-08-14T20:24:23.197Z,28.2
2023-08-14T20:29:23.839Z,28.2
2023-08-14T20:34:24.565Z,28.1
2023-08-14T20:39:27.983Z,28.1
2023-08-14T20:44:28.132Z,28.1
2023-08-14T20:49:28.729Z,28.1
2023-08-14T20:54:31.911Z,28.1
2023-08-14T20:59:32.140Z,28
2023-08-14T21:04:32.730Z,28.1
2023-08-14T21:09:36.133Z,28.1
2023-08-14T21:14:39.046Z,28
2023-08-14T21:19:39.223Z,28
2023-08-14T21:24:42.664Z,28
2023-08-14T21:29:42.977Z,28
2023-08-14T21:34:43.507Z,28
2023-08-14T21:39:44.355Z,28
2023-08-14T21:44:44.889Z,27.9
2023-08-14T21:49:48.951Z,27.9
2023-08-14T21:54:48.984Z,27.9
2023-08-14T21:59:52.550Z,27.8
2023-08-14T22:04:55.259Z,27.8
2023-08-14T22:09:55.372Z,27.8
2023-08-14T22:14:55.930Z,27.8
2023-08-14T22:19:56.608Z,27.7
2023-08-14T22:24:57.261Z,27.7
2023-08-14T22:29:57.932Z,27.7
2023-08-14T22:35:01.374Z,27.7
2023-08-14T22:40:01.606Z,27.8
2023-08-14T22:45:02.197Z,27.7
2023-08-14T22:50:03.068Z,27.7
2023-08-14T22:55:03.867Z,27.7
2023-08-14T23:00:07.456Z,27.7
2023-08-14T23:05:07.668Z,27.6
2023-08-14T23:10:08.408Z,27.7
2023-08-14T23:15:12.690Z,27.7
2023-08-14T23:20:12.787Z,27.6
2023-08-14T23:25:13.573Z,27.6
2023-08-14T23:30:14.288Z,27.6
2023-08-14T23:35:14.889Z,27.5
2023-08-14T23:40:15.600Z,27.6
2023-08-14T23:45:16.415Z,27.5
2023-08-14T23:50:19.796Z,27.5
2023-08-14T23:55:20.085Z,27.6
